Time;durP1;ratioP1;P1;durP2;ratioP2;P2;SDS_P1;SDS_P2;PMS_P1;PMS_P2;Temp;Humidity;BMP_temperature;BMP_pressure;BME280_temperature;BME280_humidity;BME280_pressure;Samples;Min_cycle;Max_cycle;Signal;HPM_P1;HPM_P2
2023/03/15 05:30:50;;;;;;;8.10;5.68;;;5.80;72.60;;;;;;5765308;23;20046;-78
2023/03/15 05:33:16;;;;;;;7.47;5.97;;;5.80;72.80;;;;;;4972599;28;20681;-78
2023/03/15 05:35:45;;;;;;;7.53;6.07;;;5.80;72.70;;;;;;4967136;28;20054;-78
2023/03/15 05:38:13;;;;;;;9.60;5.82;;;5.80;72.60;;;;;;4966192;28;20066;-76
2023/03/15 05:40:41;;;;;;;12.65;5.65;;;5.80;72.90;;;;;;4960208;28;20030;-79
2023/03/15 05:43:07;;;;;;;7.97;5.88;;;5.70;72.80;;;;;;4948026;28;20029;-76
2023/03/15 05:45:32;;;;;;;8.93;5.95;;;5.70;72.60;;;;;;4976138;28;20378;-74
2023/03/15 05:47:58;;;;;;;9.73;6.32;;;5.70;72.80;;;;;;4959598;29;20038;-74
2023/03/15 05:50:24;;;;;;;10.43;5.45;;;5.70;73.10;;;;;;4959668;29;20031;-74
2023/03/15 05:52:50;;;;;;;9.65;5.57;;;5.80;72.80;;;;;;4942168;29;20099;-74
2023/03/15 05:55:16;;;;;;;10.35;6.38;;;5.80;73.50;;;;;;4959596;28;20023;-75
2023/03/15 05:57:42;;;;;;;6.38;5.13;;;5.80;73.00;;;;;;4978556;28;20050;-85
2023/03/15 06:00:09;;;;;;;9.05;5.28;;;5.80;72.90;;;;;;4965883;28;20047;-82
2023/03/15 06:02:34;;;;;;;8.30;5.30;;;5.80;73.10;;;;;;4954952;28;20031;-79
2023/03/15 06:05:00;;;;;;;7.93;5.53;;;5.70;72.90;;;;;;4957262;29;20743;-77
2023/03/15 06:07:26;;;;;;;13.25;5.38;;;5.70;73.10;;;;;;4970543;28;20059;-76
2023/03/15 06:09:51;;;;;;;9.65;6.88;;;5.70;73.60;;;;;;4978757;28;20027;-81
2023/03/15 06:12:18;;;;;;;9.77;6.63;;;5.60;74.10;;;;;;4956865;29;20039;-74
2023/03/15 06:14:44;;;;;;;12.48;6.72;;;5.60;74.20;;;;;;4959550;29;20026;-74
2023/03/15 06:17:10;;;;;;;9.30;7.13;;;5.60;74.30;;;;;;4941772;29;20038;-74
2023/03/15 06:19:35;;;;;;;13.40;6.78;;;5.50;74.40;;;;;;4965429;28;20545;-75
2023/03/15 06:22:02;;;;;;;10.43;6.25;;;5.50;74.90;;;;;;4979082;28;20041;-75
2023/03/15 06:24:28;;;;;;;8.85;5.90;;;5.50;74.90;;;;;;4978913;28;20367;-75
2023/03/15 06:26:53;;;;;;;11.18;6.00;;;5.50;75.10;;;;;;4975949;28;20053;-75
2023/03/15 06:29:20;;;;;;;15.63;7.45;;;5.50;75.00;;;;;;4991109;28;20040;-75
2023/03/15 06:31:48;;;;;;;13.80;7.50;;;5.50;75.10;;;;;;4960672;28;20082;-75
2023/03/15 06:34:14;;;;;;;7.57;6.22;;;5.50;75.20;;;;;;4977788;28;20505;-73
2023/03/15 06:36:41;;;;;;;10.18;7.32;;;5.50;75.30;;;;;;4969045;28;20031;-73
2023/03/15 06:39:07;;;;;;;10.98;6.95;;;5.50;75.50;;;;;;4960763;28;20015;-75
2023/03/15 06:41:33;;;;;;;12.25;6.72;;;5.50;75.60;;;;;;4984307;28;20041;-75
2023/03/15 06:43:59;;;;;;;17.65;7.50;;;5.50;75.60;;;;;;4978135;28;20023;-75
2023/03/15 06:46:25;;;;;;;10.93;6.55;;;5.50;75.60;;;;;;4957357;28;20034;-76
2023/03/15 06:48:50;;;;;;;9.38;6.95;;;5.50;75.60;;;;;;4958448;29;20027;-76
2023/03/15 06:51:16;;;;;;;15.75;6.45;;;5.60;75.80;;;;;;4941414;28;20043;-76
2023/03/15 06:53:42;;;;;;;11.05;6.15;;;5.70;75.50;;;;;;4958643;29;20047;-75
2023/03/15 06:56:07;;;;;;;10.35;6.72;;;5.80;75.30;;;;;;4940463;28;20123;-75
2023/03/15 06:58:33;;;;;;;14.50;7.57;;;5.80;75.00;;;;;;4958888;29;20102;-76
2023/03/15 07:00:58;;;;;;;12.30;7.32;;;5.80;75.00;;;;;;4958447;28;20114;-76
2023/03/15 07:03:24;;;;;;;14.43;7.20;;;5.80;75.00;;;;;;4953375;28;20027;-76
2023/03/15 07:05:52;;;;;;;10.88;6.57;;;5.80;75.10;;;;;;4960507;28;20038;-76
2023/03/15 07:08:22;;;;;;;13.30;7.75;;;5.90;75.00;;;;;;4977336;28;20023;-75
2023/03/15 07:10:49;;;;;;;12.85;6.90;;;5.90;74.90;;;;;;4977721;28;20390;-75
2023/03/15 07:13:15;;;;;;;9.57;5.93;;;6.00;74.80;;;;;;4960237;28;20406;-75
2023/03/15 07:15:41;;;;;;;12.10;7.03;;;6.00;74.60;;;;;;4977633;28;20031;-75
2023/03/15 07:18:06;;;;;;;9.48;6.95;;;6.00;74.40;;;;;;4959323;28;20027;-76
2023/03/15 07:20:32;;;;;;;16.90;7.25;;;6.20;74.40;;;;;;4977193;28;20485;-76
2023/03/15 07:22:58;;;;;;;12.38;6.82;;;6.60;73.70;;;;;;4958593;28;20761;-76
2023/03/15 07:25:24;;;;;;;10.15;5.80;;;7.60;71.00;;;;;;4977664;28;20031;-76
2023/03/15 07:27:51;;;;;;;7.45;6.05;;;8.90;67.70;;;;;;4973527;28;20125;-76
2023/03/15 07:30:17;;;;;;;6.13;5.45;;;9.20;65.30;;;;;;4993635;28;20030;-76
2023/03/15 07:32:43;;;;;;;10.07;4.97;;;9.20;65.10;;;;;;4947088;28;20038;-76
2023/03/15 07:35:09;;;;;;;9.63;4.95;;;8.80;65.60;;;;;;4977366;28;20027;-76
2023/03/15 07:37:35;;;;;;;19.33;5.97;;;8.80;65.90;;;;;;4977454;28;20027;-76
2023/03/15 07:40:08;;;;;;;9.98;5.28;;;9.00;65.60;;;;;;4964322;28;20023;-76
2023/03/15 07:42:37;;;;;;;10.95;5.50;;;9.00;65.90;;;;;;4940689;29;20462;-76
2023/03/15 07:45:04;;;;;;;13.60;6.25;;;8.90;66.20;;;;;;4957670;28;20027;-76
2023/03/15 07:47:30;;;;;;;11.10;5.93;;;8.90;66.40;;;;;;4957647;29;20027;-76
2023/03/15 07:49:55;;;;;;;9.02;5.53;;;9.10;66.40;;;;;;4957805;29;20419;-76
2023/03/15 07:52:21;;;;;;;11.30;6.15;;;9.30;65.90;;;;;;4972476;28;20029;-76
2023/03/15 07:54:47;;;;;;;10.27;5.63;;;9.80;65.00;;;;;;4973265;28;20058;-76
2023/03/15 07:57:13;;;;;;;14.75;6.22;;;10.70;62.60;;;;;;4967819;28;20027;-77
2023/03/15 07:59:38;;;;;;;10.85;5.35;;;10.90;60.90;;;;;;4977562;28;20128;-77
2023/03/15 08:02:04;;;;;;;12.85;5.30;;;10.40;61.50;;;;;;4977818;28;20057;-77
2023/03/15 08:04:30;;;;;;;7.57;5.40;;;10.50;62.20;;;;;;4974508;28;20027;-76
2023/03/15 08:06:56;;;;;;;8.90;4.97;;;11.10;61.50;;;;;;4975941;28;20038;-76
2023/03/15 08:09:22;;;;;;;9.00;4.32;;;12.40;58.40;;;;;;4975694;28;20478;-77
2023/03/15 08:11:47;;;;;;;7.35;3.30;;;13.70;54.30;;;;;;4973752;28;20073;-76
2023/03/15 08:14:13;;;;;;;10.68;3.75;;;14.10;52.60;;;;;;4975939;28;20122;-78
2023/03/15 08:16:39;;;;;;;10.98;4.50;;;14.40;51.50;;;;;;4958476;28;20019;-77
2023/03/15 08:19:04;;;;;;;10.05;3.15;;;13.50;51.60;;;;;;4973996;28;20449;-77
2023/03/15 08:21:32;;;;;;;10.23;4.13;;;13.50;52.20;;;;;;4973636;28;20041;-76
2023/03/15 08:23:59;;;;;;;11.88;4.05;;;14.00;52.00;;;;;;4975761;28;20031;-76
2023/03/15 08:26:24;;;;;;;5.68;3.05;;;14.30;51.50;;;;;;4958258;28;20045;-77
2023/03/15 08:28:50;;;;;;;8.50;3.60;;;13.60;51.20;;;;;;4972872;28;20031;-78
2023/03/15 08:31:16;;;;;;;10.10;4.20;;;14.10;52.60;;;;;;4975400;28;20082;-76
2023/03/15 08:33:42;;;;;;;7.80;3.47;;;14.40;51.70;;;;;;4975310;28;20027;-77
2023/03/15 08:36:08;;;;;;;7.25;3.30;;;14.80;50.70;;;;;;4954704;28;20575;-77
2023/03/15 08:38:34;;;;;;;5.20;3.42;;;15.20;49.10;;;;;;4972727;28;20027;-77
2023/03/15 08:41:00;;;;;;;10.23;4.25;;;15.30;48.70;;;;;;4978576;28;20034;-77
2023/03/15 08:43:26;;;;;;;7.28;3.20;;;15.20;48.20;;;;;;4976250;28;20134;-78
2023/03/15 08:45:52;;;;;;;9.98;3.83;;;16.20;48.90;;;;;;4969395;28;20544;-78
2023/03/15 08:48:17;;;;;;;6.45;3.90;;;15.80;47.10;;;;;;4976846;28;20050;-77
2023/03/15 08:50:43;;;;;;;8.50;5.30;;;15.70;48.30;;;;;;4959954;28;20026;-77
2023/03/15 08:53:10;;;;;;;9.00;3.88;;;14.60;49.30;;;;;;4972951;28;20063;-77
2023/03/15 08:55:36;;;;;;;6.88;3.92;;;14.60;50.20;;;;;;4961976;28;20058;-77
2023/03/15 08:58:03;;;;;;;8.15;3.78;;;14.30;52.00;;;;;;4979221;28;20045;-77
2023/03/15 09:00:29;;;;;;;7.50;3.70;;;14.70;51.40;;;;;;4977723;28;20502;-77
2023/03/15 09:02:55;;;;;;;9.15;3.78;;;15.30;50.40;;;;;;4978508;28;20662;-77
2023/03/15 09:05:23;;;;;;;8.60;3.58;;;15.80;49.60;;;;;;4978219;28;20026;-77
2023/03/15 09:07:51;;;;;;;11.13;4.05;;;16.30;48.60;;;;;;4955753;28;20027;-77
2023/03/15 09:10:18;;;;;;;10.80;3.67;;;16.50;46.40;;;;;;4977741;28;20023;-77
2023/03/15 09:12:46;;;;;;;4.95;3.17;;;16.70;47.00;;;;;;4977693;28;20117;-77
2023/03/15 09:15:12;;;;;;;8.60;3.70;;;17.10;46.90;;;;;;4978966;28;20384;-78
2023/03/15 09:17:38;;;;;;;6.95;3.30;;;17.70;46.10;;;;;;4961394;28;20026;-77
2023/03/15 09:20:17;;;;;;;7.60;3.13;;;18.20;44.90;;;;;;4960287;28;20033;-78
2023/03/15 09:22:48;;;;;;;6.95;2.72;;;18.50;44.70;;;;;;4976755;28;20482;-78
2023/03/15 09:25:14;;;;;;;5.97;3.20;;;18.80;43.20;;;;;;4976998;28;20082;-77
2023/03/15 09:27:40;;;;;;;5.40;3.80;;;18.90;43.10;;;;;;4977507;28;20026;-77
2023/03/15 09:30:07;;;;;;;6.45;3.70;;;19.10;42.70;;;;;;4961106;28;20022;-80
2023/03/15 09:32:35;;;;;;;7.55;3.38;;;19.50;42.50;;;;;;4977472;28;20027;-77
2023/03/15 09:35:02;;;;;;;6.68;2.88;;;20.00;41.30;;;;;;4978011;28;20027;-78
2023/03/15 09:37:28;;;;;;;8.70;3.33;;;20.30;41.50;;;;;;4979143;28;20023;-77
2023/03/15 09:39:53;;;;;;;6.35;3.03;;;20.70;40.00;;;;;;4961938;28;20065;-78
2023/03/15 09:42:33;;;;;;;4.57;2.88;;;21.00;40.30;;;;;;4961761;28;20704;-78
2023/03/15 09:45:08;;;;;;;7.68;3.05;;;21.30;38.70;;;;;;4959597;28;20030;-78
2023/03/15 09:47:52;;;;;;;7.78;3.60;;;21.40;38.80;;;;;;4960977;28;20023;-77
2023/03/15 09:50:26;;;;;;;7.63;2.70;;;21.50;38.60;;;;;;4976014;28;20031;-77
2023/03/15 09:52:55;;;;;;;5.75;2.83;;;21.70;37.90;;;;;;4976209;28;20033;-77
2023/03/15 09:55:30;;;;;;;7.10;3.17;;;21.80;38.20;;;;;;4964370;28;20027;-78
2023/03/15 09:57:59;;;;;;;6.72;2.78;;;21.50;38.20;;;;;;4976705;28;20045;-78
2023/03/15 10:00:41;;;;;;;6.18;2.28;;;21.10;38.50;;;;;;4977718;28;20485;-78
2023/03/15 10:03:38;;;;;;;6.72;1.88;;;21.00;39.00;;;;;;4959627;28;20050;-78
2023/03/15 10:06:15;;;;;;;8.93;2.13;;;20.90;38.80;;;;;;4954799;28;20118;-78
2023/03/15 10:08:41;;;;;;;6.78;2.08;;;20.80;38.80;;;;;;4973433;28;20122;-78
2023/03/15 10:11:42;;;;;;;6.50;1.50;;;20.60;39.30;;;;;;4977699;28;20108;-78
2023/03/15 10:14:26;;;;;;;9.27;1.48;;;20.00;40.80;;;;;;4957645;28;20075;-78
2023/03/15 10:16:52;;;;;;;4.95;1.27;;;19.20;42.50;;;;;;4975487;28;20402;-78
2023/03/15 10:19:51;;;;;;;5.70;1.40;;;18.60;42.60;;;;;;4976810;28;20022;-77
2023/03/15 10:22:47;;;;;;;6.95;1.63;;;18.10;43.90;;;;;;4978117;28;20038;-78
2023/03/15 10:25:24;;;;;;;5.05;1.33;;;17.70;44.50;;;;;;4939874;28;20038;-77
2023/03/15 10:28:00;;;;;;;5.53;1.27;;;17.30;45.80;;;;;;4978415;28;20058;-77
2023/03/15 10:30:31;;;;;;;6.47;1.10;;;16.90;46.50;;;;;;4958718;28;20070;-77
2023/03/15 10:33:24;;;;;;;7.63;1.00;;;16.50;46.50;;;;;;4959523;28;20055;-78
2023/03/15 10:35:50;;;;;;;6.65;1.25;;;16.30;46.90;;;;;;4976812;28;20086;-77
2023/03/15 10:38:17;;;;;;;5.05;1.50;;;16.10;47.70;;;;;;4977629;28;20039;-77
2023/03/15 10:40:47;;;;;;;6.35;0.98;;;16.00;47.40;;;;;;4975362;28;20462;-77
2023/03/15 10:43:28;;;;;;;3.38;0.70;;;15.80;45.50;;;;;;4960540;28;20086;-77
2023/03/15 10:46:08;;;;;;;5.60;1.30;;;15.70;47.40;;;;;;4976964;28;20023;-77
2023/03/15 10:48:36;;;;;;;4.65;1.33;;;15.70;48.10;;;;;;4977468;28;20038;-77
2023/03/15 10:51:17;;;;;;;11.30;1.88;;;15.90;48.40;;;;;;4955634;28;20634;-78
2023/03/15 10:54:03;;;;;;;4.53;1.27;;;16.10;47.00;;;;;;4975720;28;20030;-77
2023/03/15 10:56:34;;;;;;;4.72;1.20;;;15.90;45.40;;;;;;4975340;28;20027;-77
2023/03/15 10:59:00;;;;;;;5.57;1.33;;;15.90;48.10;;;;;;4976861;28;20441;-77
2023/03/15 11:01:34;;;;;;;7.88;1.10;;;16.00;48.00;;;;;;4977496;28;20055;-77
2023/03/15 11:04:11;;;;;;;6.57;1.30;;;16.10;48.50;;;;;;4957132;28;20165;-77
2023/03/15 11:06:43;;;;;;;5.82;1.13;;;16.10;48.30;;;;;;4966192;28;20019;-77
2023/03/15 11:09:15;;;;;;;2.55;0.77;;;16.00;47.60;;;;;;4976821;28;20039;-77
2023/03/15 11:11:54;;;;;;;3.80;1.35;;;15.90;46.60;;;;;;4959832;28;20788;-77
2023/03/15 11:14:20;;;;;;;5.07;1.10;;;15.70;44.80;;;;;;4975849;28;20081;-77
2023/03/15 11:16:49;;;;;;;3.78;0.80;;;15.40;45.40;;;;;;4973294;28;20029;-77
2023/03/15 11:19:18;;;;;;;5.57;1.65;;;15.30;48.00;;;;;;4976543;28;20026;-77
2023/03/15 11:21:46;;;;;;;6.80;1.10;;;15.20;49.10;;;;;;4974706;28;20037;-77
2023/03/15 11:24:24;;;;;;;4.00;0.98;;;15.00;48.40;;;;;;4976470;28;20054;-77
2023/03/15 11:26:53;;;;;;;7.88;1.00;;;15.20;49.00;;;;;;4958666;28;20497;-77
2023/03/15 11:29:31;;;;;;;17.70;1.40;;;15.20;48.80;;;;;;4974320;28;20071;-77
2023/03/15 11:32:21;;;;;;;5.25;0.90;;;15.20;49.50;;;;;;4966296;28;20057;-77
2023/03/15 11:34:52;;;;;;;;;;;14.80;49.90;;;;;;4976515;28;20023;-77
2023/03/15 11:37:22;;;;;;;5.20;1.42;;;15.00;50.10;;;;;;4965831;28;19945;-77
2023/03/15 11:39:50;;;;;;;4.97;0.98;;;15.10;49.10;;;;;;4963568;28;20562;-77
2023/03/15 11:42:31;;;;;;;7.03;1.45;;;15.00;49.90;;;;;;4957989;28;20034;-77
2023/03/15 11:45:03;;;;;;;3.88;1.42;;;15.20;49.70;;;;;;4975638;28;20031;-77
2023/03/15 11:47:51;;;;;;;6.20;1.15;;;15.50;49.60;;;;;;4974922;28;20389;-76
2023/03/15 11:50:18;;;;;;;9.02;1.40;;;15.60;49.20;;;;;;4974121;28;20031;-77
2023/03/15 11:52:48;;;;;;;3.97;1.05;;;15.60;49.20;;;;;;4976751;28;20022;-77
2023/03/15 11:55:21;;;;;;;;;;;15.50;49.50;;;;;;4975989;28;20084;-77
2023/03/15 11:57:48;;;;;;;7.28;1.30;;;15.50;48.70;;;;;;4976733;28;19910;-76
2023/03/15 12:00:44;;;;;;;10.13;1.40;;;15.30;50.40;;;;;;4976584;28;20398;-77
2023/03/15 12:03:37;;;;;;;3.05;1.10;;;15.30;48.70;;;;;;4973534;28;20083;-77
2023/03/15 12:06:16;;;;;;;3.40;1.10;;;15.50;49.90;;;;;;4974641;28;20478;-77
2023/03/15 12:08:50;;;;;;;3.03;0.70;;;15.80;49.10;;;;;;4972185;28;20074;-77
2023/03/15 12:11:19;;;;;;;9.05;1.23;;;15.80;46.90;;;;;;4976054;28;20434;-78
2023/03/15 12:14:00;;;;;;;5.35;1.17;;;15.60;46.40;;;;;;4976036;28;20022;-78
2023/03/15 12:16:30;;;;;;;5.60;1.38;;;15.70;49.50;;;;;;4955711;28;20104;-79
2023/03/15 12:18:57;;;;;;;3.20;1.23;;;15.90;49.50;;;;;;4973914;28;20030;-78
2023/03/15 12:21:38;;;;;;;10.15;1.90;;;16.00;48.70;;;;;;4975499;28;20026;-78
2023/03/15 12:24:07;;;;;;;7.40;1.98;;;15.90;46.90;;;;;;4973843;28;20401;-79
2023/03/15 12:26:40;;;;;;;6.90;1.33;;;15.90;48.10;;;;;;4977579;28;20029;-78
2023/03/15 12:29:16;;;;;;;13.05;1.60;;;16.00;48.00;;;;;;4973800;28;20023;-79
2023/03/15 12:31:51;;;;;;;8.77;1.40;;;15.40;47.30;;;;;;4975862;28;20051;-78
2023/03/15 12:34:46;;;;;;;5.40;1.25;;;15.70;50.20;;;;;;4972813;28;20624;-78
2023/03/15 12:37:41;;;;;;;7.72;1.30;;;15.80;49.10;;;;;;4974635;28;20041;-79
2023/03/15 12:40:21;;;;;;;4.80;0.88;;;15.90;48.90;;;;;;4974006;28;20023;-78
2023/03/15 12:42:46;;;;;;;8.20;1.50;;;15.90;48.30;;;;;;4973941;28;20030;-79
2023/03/15 12:45:15;;;;;;;7.47;1.58;;;16.10;49.20;;;;;;4976241;28;20065;-78
2023/03/15 12:47:45;;;;;;;6.57;1.35;;;16.00;47.30;;;;;;4976011;28;20105;-78
2023/03/15 12:50:42;;;;;;;9.85;1.30;;;15.80;49.00;;;;;;4973294;28;20024;-78
2023/03/15 12:53:23;;;;;;;4.38;1.02;;;15.80;48.10;;;;;;4973270;28;20023;-79
2023/03/15 12:55:50;;;;;;;5.97;1.13;;;15.80;49.10;;;;;;4971608;28;20023;-78
2023/03/15 12:58:19;;;;;;;5.97;0.95;;;16.00;49.20;;;;;;4975946;28;20042;-78
2023/03/15 13:00:45;;;;;;;6.15;1.67;;;16.10;49.30;;;;;;4971848;28;20057;-78
2023/03/15 13:03:17;;;;;;;5.63;1.45;;;16.10;48.00;;;;;;4975817;28;20031;-78
2023/03/15 13:05:59;;;;;;;5.10;1.73;;;16.00;48.90;;;;;;4974317;28;20023;-79
2023/03/15 13:08:35;;;;;;;12.07;2.00;;;15.90;48.90;;;;;;4973535;28;20026;-78
2023/03/15 13:11:20;;;;;;;4.72;1.23;;;15.90;49.70;;;;;;4975955;28;20121;-78
2023/03/15 13:13:45;;;;;;;7.35;1.50;;;15.90;49.10;;;;;;4972127;28;20023;-79
2023/03/15 13:16:35;;;;;;;6.38;1.50;;;15.50;48.90;;;;;;4974250;28;20098;-78
2023/03/15 13:19:13;;;;;;;3.78;1.13;;;15.70;51.00;;;;;;4974461;28;20398;-78
2023/03/15 13:21:48;;;;;;;6.47;1.02;;;15.50;50.10;;;;;;4975925;28;20027;-78
2023/03/15 13:24:28;;;;;;;4.70;1.00;;;15.70;50.60;;;;;;4975804;28;20035;-79
2023/03/15 13:26:57;;;;;;;;;;;15.80;50.90;;;;;;4977600;28;20063;-79
2023/03/15 13:29:29;;;;;;;7.07;1.50;;;15.90;49.10;;;;;;4974457;28;19916;-77
2023/03/15 13:32:16;;;;;;;5.30;1.50;;;16.00;48.70;;;;;;4971891;28;20130;-77
2023/03/15 13:34:45;;;;;;;5.22;0.90;;;16.10;49.20;;;;;;4975712;28;20026;-77
2023/03/15 13:37:16;;;;;;;4.38;0.93;;;16.20;48.80;;;;;;4975874;28;20035;-77
2023/03/15 13:40:00;;;;;;;6.05;1.25;;;16.00;48.40;;;;;;4974540;28;20126;-77
2023/03/15 13:42:26;;;;;;;5.93;1.00;;;15.90;48.60;;;;;;4977062;28;20057;-77
2023/03/15 13:45:11;;;;;;;5.90;1.40;;;15.80;49.70;;;;;;4976514;28;20038;-77
2023/03/15 13:47:40;;;;;;;3.25;0.85;;;15.80;49.80;;;;;;4946086;28;20023;-77
2023/03/15 13:50:07;;;;;;;6.10;1.05;;;15.80;49.50;;;;;;4974302;28;20058;-78
2023/03/15 13:52:33;;;;;;;3.35;0.90;;;15.80;49.60;;;;;;4971405;28;20031;-77
2023/03/15 13:55:00;;;;;;;4.70;0.90;;;15.80;50.20;;;;;;4975157;28;20442;-77
2023/03/15 13:57:28;;;;;;;3.97;1.05;;;15.70;49.50;;;;;;4975250;28;20059;-77
2023/03/15 14:00:01;;;;;;;3.10;1.13;;;15.70;50.00;;;;;;4974136;28;20027;-77
2023/03/15 14:02:46;;;;;;;3.95;0.98;;;15.70;50.50;;;;;;4965646;28;20061;-77
2023/03/15 14:05:15;;;;;;;4.45;1.23;;;15.30;50.90;;;;;;4955769;28;20686;-77
2023/03/15 14:07:47;;;;;;;5.38;1.20;;;15.50;51.90;;;;;;4955272;28;20459;-77
2023/03/15 14:10:16;;;;;;;8.80;1.20;;;15.70;51.10;;;;;;4971790;28;20058;-77
2023/03/15 14:12:42;;;;;;;8.65;1.70;;;15.70;50.50;;;;;;4958444;28;20035;-77
2023/03/15 14:15:42;;;;;;;5.93;1.30;;;15.40;50.00;;;;;;4970463;28;20031;-77
2023/03/15 14:18:07;;;;;;;5.95;1.30;;;15.50;50.80;;;;;;4954106;28;20150;-77
2023/03/15 14:20:46;;;;;;;5.35;1.20;;;15.30;52.40;;;;;;4971215;28;20118;-77
2023/03/15 14:23:15;;;;;;;4.03;1.38;;;15.30;52.10;;;;;;4971729;28;20027;-77
2023/03/15 14:25:42;;;;;;;3.25;1.00;;;15.10;52.60;;;;;;4953317;28;20058;-77
2023/03/15 14:28:15;;;;;;;8.60;1.73;;;15.10;52.90;;;;;;4961477;28;20030;-77
2023/03/15 14:30:41;;;;;;;3.08;1.10;;;15.20;53.10;;;;;;4971019;28;20780;-77
2023/03/15 14:33:23;;;;;;;3.25;1.13;;;15.20;53.50;;;;;;4970510;28;20028;-77
2023/03/15 14:35:53;;;;;;;10.07;1.30;;;15.30;52.20;;;;;;4971810;28;20029;-76
2023/03/15 14:38:24;;;;;;;3.67;1.02;;;15.30;52.70;;;;;;4953276;28;20034;-77
2023/03/15 14:40:52;;;;;;;6.90;1.60;;;15.40;52.80;;;;;;4970266;28;20523;-77
2023/03/15 14:43:18;;;;;;;5.38;1.55;;;15.30;52.60;;;;;;4971839;28;20469;-77
2023/03/15 14:45:48;;;;;;;4.97;1.35;;;15.20;53.10;;;;;;4972415;28;20033;-77
2023/03/15 14:48:28;;;;;;;3.95;0.93;;;15.20;53.70;;;;;;4969344;28;20069;-76
2023/03/15 14:50:54;;;;;;;;;;;15.10;53.20;;;;;;4972450;28;20031;-76
2023/03/15 14:53:23;;;;;;;3.22;0.90;;;14.90;53.20;;;;;;4969597;28;19964;-77
2023/03/15 14:55:48;;;;;;;5.35;0.90;;;14.80;53.60;;;;;;4973186;28;20038;-76
2023/03/15 14:58:17;;;;;;;5.57;0.95;;;14.80;53.80;;;;;;4972884;28;20105;-77
2023/03/15 15:00:47;;;;;;;3.03;1.05;;;14.80;53.70;;;;;;4970057;28;20438;-77
2023/03/15 15:03:31;;;;;;;3.80;1.15;;;14.80;54.50;;;;;;4970717;28;20026;-77
2023/03/15 15:05:58;;;;;;;5.68;1.13;;;14.90;55.10;;;;;;4967847;28;20049;-77
2023/03/15 15:08:24;;;;;;;4.50;1.17;;;15.00;54.80;;;;;;4974923;28;20031;-79
2023/03/15 15:10:51;;;;;;;5.45;1.83;;;15.10;54.60;;;;;;4956915;28;20027;-76
2023/03/15 15:13:25;;;;;;;3.78;1.27;;;15.20;54.30;;;;;;4976140;28;20098;-76
2023/03/15 15:15:52;;;;;;;7.03;1.13;;;15.30;54.40;;;;;;4975169;28;20023;-76
2023/03/15 15:18:17;;;;;;;9.52;1.30;;;15.20;54.40;;;;;;4971779;28;20054;-77
2023/03/15 15:20:43;;;;;;;8.23;1.52;;;15.20;54.50;;;;;;4971779;28;20074;-76
2023/03/15 15:23:14;;;;;;;3.20;1.05;;;14.70;55.50;;;;;;4975197;28;20023;-77
2023/03/15 15:25:39;;;;;;;5.72;2.05;;;14.50;55.60;;;;;;4975560;28;20027;-77
2023/03/15 15:28:05;;;;;;;6.03;1.13;;;14.70;56.40;;;;;;4974713;28;20045;-76
2023/03/15 15:30:30;;;;;;;4.53;1.40;;;14.70;56.30;;;;;;4975612;28;20058;-75
2023/03/15 15:32:56;;;;;;;6.38;1.15;;;14.80;56.00;;;;;;4975716;28;20045;-76
2023/03/15 15:35:24;;;;;;;4.32;1.00;;;14.80;56.20;;;;;;4973404;28;20054;-76
2023/03/15 15:37:51;;;;;;;8.60;1.20;;;14.80;56.60;;;;;;4975790;28;20026;-76
2023/03/15 15:40:20;;;;;;;3.28;1.27;;;14.80;56.10;;;;;;4971095;28;20030;-77
2023/03/15 15:42:46;;;;;;;5.63;1.10;;;14.70;55.70;;;;;;4973502;28;20023;-78
2023/03/15 15:45:14;;;;;;;6.78;1.23;;;14.70;55.90;;;;;;4971404;28;20024;-78
2023/03/15 15:47:40;;;;;;;4.50;1.10;;;14.60;57.50;;;;;;4960621;28;20095;-77
2023/03/15 15:50:08;;;;;;;3.35;1.15;;;14.60;57.10;;;;;;4978878;28;20069;-77
2023/03/15 15:52:37;;;;;;;2.13;1.10;;;14.70;57.20;;;;;;4962369;28;20027;-77
2023/03/15 15:55:04;;;;;;;5.93;1.38;;;14.80;57.10;;;;;;4971954;28;20023;-77
2023/03/15 15:57:30;;;;;;;5.75;1.27;;;14.80;57.20;;;;;;4974062;28;20019;-77
2023/03/15 15:59:56;;;;;;;2.60;0.70;;;15.00;57.60;;;;;;4974552;28;20042;-77
2023/03/15 16:02:22;;;;;;;4.18;0.80;;;15.10;56.90;;;;;;4972289;28;20504;-77
2023/03/15 16:04:48;;;;;;;2.78;0.88;;;15.00;57.00;;;;;;4973093;28;20045;-77
2023/03/15 16:07:14;;;;;;;6.38;1.33;;;15.00;57.30;;;;;;4973570;28;20490;-77
2023/03/15 16:09:42;;;;;;;5.82;1.33;;;14.90;56.80;;;;;;4973550;28;20158;-77
2023/03/15 16:12:16;;;;;;;2.88;0.98;;;15.00;56.90;;;;;;4975029;28;20031;-77
2023/03/15 16:14:42;;;;;;;2.08;1.10;;;15.00;57.40;;;;;;4958237;28;20023;-77
2023/03/15 16:17:16;;;;;;;4.63;1.35;;;14.90;57.30;;;;;;4973285;28;20106;-77
2023/03/15 16:19:42;;;;;;;3.45;1.40;;;14.90;57.50;;;;;;4973280;28;20367;-77
2023/03/15 16:22:08;;;;;;;3.78;1.38;;;14.80;58.80;;;;;;4973624;28;20086;-77
2023/03/15 16:24:37;;;;;;;4.40;1.10;;;14.90;58.80;;;;;;4975790;28;20019;-77
2023/03/15 16:27:05;;;;;;;3.33;1.08;;;14.70;58.70;;;;;;4974789;28;20030;-77
2023/03/15 16:29:43;;;;;;;2.50;1.15;;;14.70;58.90;;;;;;4971480;28;20031;-77
2023/03/15 16:32:20;;;;;;;1.88;1.10;;;14.50;59.20;;;;;;4971001;28;20074;-77
2023/03/15 16:34:51;;;;;;;5.65;1.35;;;14.40;60.50;;;;;;4957564;28;20094;-77
2023/03/15 16:37:23;;;;;;;1.38;0.65;;;14.30;60.60;;;;;;4968254;28;20039;-77
2023/03/15 16:39:51;;;;;;;2.03;1.05;;;14.30;60.60;;;;;;4971711;28;20015;-76
2023/03/15 16:42:18;;;;;;;5.32;1.13;;;14.30;60.60;;;;;;4973935;28;20026;-77
2023/03/15 16:44:44;;;;;;;1.60;0.55;;;14.30;60.90;;;;;;4968413;28;20056;-77
2023/03/15 16:47:10;;;;;;;7.30;1.63;;;14.30;60.70;;;;;;4960958;28;20030;-80
2023/03/15 16:49:35;;;;;;;4.38;1.20;;;14.30;60.90;;;;;;4968408;28;20024;-78
2023/03/15 16:52:03;;;;;;;0.60;0.50;;;14.30;61.10;;;;;;4967493;28;20039;-78
2023/03/15 16:54:31;;;;;;;1.90;0.85;;;14.30;61.30;;;;;;4971681;28;20019;-78
2023/03/15 16:56:58;;;;;;;1.40;0.73;;;14.30;61.70;;;;;;4973922;28;20409;-80
2023/03/15 16:59:23;;;;;;;3.08;0.93;;;14.30;61.90;;;;;;4970958;28;20110;-80
2023/03/15 17:01:49;;;;;;;2.08;0.65;;;14.20;61.90;;;;;;4960365;28;20121;-79
2023/03/15 17:04:15;;;;;;;3.13;0.65;;;14.20;62.40;;;;;;4973649;28;20030;-77
2023/03/15 17:06:44;;;;;;;5.85;0.85;;;14.20;62.60;;;;;;4978845;28;20404;-79
2023/03/15 17:09:22;;;;;;;2.45;0.70;;;14.20;62.70;;;;;;4973076;28;20023;-79
2023/03/15 17:11:50;;;;;;;3.22;0.90;;;14.10;63.20;;;;;;4961607;28;20027;-79
2023/03/15 17:14:28;;;;;;;4.20;1.10;;;14.10;63.30;;;;;;4959444;28;20019;-79
2023/03/15 17:16:54;;;;;;;1.70;0.88;;;14.00;63.30;;;;;;4975444;28;20027;-78
2023/03/15 17:19:20;;;;;;;2.35;1.00;;;14.00;63.90;;;;;;4975335;28;20034;-78
2023/03/15 17:21:46;;;;;;;6.03;1.17;;;13.90;63.90;;;;;;4957585;28;20034;-78
2023/03/15 17:24:12;;;;;;;2.97;0.85;;;13.90;64.20;;;;;;4972187;28;20033;-78
2023/03/15 17:26:38;;;;;;;6.28;1.27;;;13.90;64.60;;;;;;4960491;28;20033;-77
2023/03/15 17:29:04;;;;;;;3.13;0.77;;;13.80;64.80;;;;;;4972153;28;20023;-84
2023/03/15 17:31:36;;;;;;;4.20;1.00;;;13.80;65.00;;;;;;4975319;28;20058;-85
2023/03/15 17:34:02;;;;;;;2.80;0.93;;;13.70;65.30;;;;;;4973438;28;20081;-84
2023/03/15 17:36:34;;;;;;;2.47;1.00;;;13.70;65.70;;;;;;4977107;28;20022;-84
2023/03/15 17:39:03;;;;;;;2.10;1.10;;;13.80;65.40;;;;;;4972514;28;20025;-84
2023/03/15 17:41:35;;;;;;;2.67;1.25;;;13.80;65.70;;;;;;4976997;28;20030;-84
2023/03/15 17:44:01;;;;;;;4.55;0.98;;;13.80;65.80;;;;;;4975745;28;20050;-85
2023/03/15 17:46:28;;;;;;;3.65;1.15;;;13.80;66.10;;;;;;4974932;28;20434;-85
2023/03/15 17:48:56;;;;;;;4.32;1.08;;;13.70;66.20;;;;;;4958789;28;20390;-84
2023/03/15 17:51:24;;;;;;;5.97;1.55;;;13.60;66.50;;;;;;4960934;28;20031;-84
2023/03/15 17:53:50;;;;;;;5.80;1.25;;;13.60;66.70;;;;;;4958232;28;20031;-85
2023/03/15 17:56:17;;;;;;;2.78;1.30;;;13.60;67.00;;;;;;4975490;28;20033;-85
2023/03/15 17:58:45;;;;;;;4.03;1.20;;;13.40;67.60;;;;;;4960917;28;20030;-85
2023/03/15 18:01:30;;;;;;;2.88;0.80;;;13.50;67.60;;;;;;4960641;28;20040;-85
2023/03/15 18:03:56;;;;;;;2.10;1.48;;;13.50;67.90;;;;;;4976572;28;20042;-85
2023/03/15 18:06:22;;;;;;;1.40;0.88;;;13.40;68.50;;;;;;4961184;28;20027;-84
2023/03/15 18:08:49;;;;;;;1.98;1.05;;;13.40;68.50;;;;;;4978044;28;20029;-81
2023/03/15 18:11:21;;;;;;;5.90;1.33;;;13.30;68.90;;;;;;4968372;28;20514;-79
2023/03/15 18:13:47;;;;;;;8.80;1.52;;;13.30;69.20;;;;;;4943699;29;20059;-81
2023/03/15 18:16:13;;;;;;;4.30;1.40;;;13.30;69.10;;;;;;4964431;28;20443;-82
2023/03/15 18:18:40;;;;;;;3.65;1.15;;;13.40;69.30;;;;;;4965246;28;20019;-82
2023/03/15 18:21:15;;;;;;;4.50;1.42;;;13.30;69.40;;;;;;4960433;29;20027;-83
2023/03/15 18:23:41;;;;;;;3.30;1.40;;;13.30;69.90;;;;;;4943930;29;20666;-78
2023/03/15 18:26:09;;;;;;;3.72;1.30;;;13.20;70.50;;;;;;4960290;28;20034;-78
2023/03/15 18:28:34;;;;;;;1.70;1.33;;;13.20;70.90;;;;;;4998032;28;20026;-77
2023/03/15 18:31:00;;;;;;;7.22;1.52;;;13.10;71.10;;;;;;4968403;28;20055;-79
2023/03/15 18:33:26;;;;;;;9.38;1.80;;;13.20;71.30;;;;;;4971243;28;20490;-78